createdAt,value
2018-09-27T00:01:14.343Z,9.28
2018-09-27T00:04:14.344Z,9.30
2018-09-27T00:07:14.273Z,9.27
2018-09-27T00:10:14.251Z,8.97
2018-09-27T00:13:14.210Z,8.76
2018-09-27T00:16:14.208Z,8.55
2018-09-27T00:19:14.230Z,8.35
2018-09-27T00:22:14.137Z,8.32
2018-09-27T00:25:14.075Z,8.58
2018-09-27T00:28:14.064Z,8.60
2018-09-27T00:31:14.013Z,8.35
2018-09-27T00:34:13.981Z,8.22
2018-09-27T00:37:13.957Z,8.45
2018-09-27T00:40:13.922Z,8.63
2018-09-27T00:43:13.874Z,8.75
2018-09-27T00:46:13.845Z,8.57
2018-09-27T00:49:13.827Z,8.33
2018-09-27T00:52:13.785Z,8.22
2018-09-27T00:55:13.729Z,8.42
2018-09-27T00:58:13.717Z,8.60
2018-09-27T01:01:13.690Z,8.63
2018-09-27T01:04:13.645Z,8.78
2018-09-27T01:07:13.595Z,8.73
2018-09-27T01:10:13.586Z,8.33
2018-09-27T01:13:13.521Z,8.10
2018-09-27T01:16:13.501Z,8.20
2018-09-27T01:19:13.462Z,8.40
2018-09-27T01:22:13.429Z,8.47
2018-09-27T01:25:13.482Z,8.69
2018-09-27T01:28:13.367Z,8.63
2018-09-27T01:31:13.324Z,8.54
2018-09-27T01:34:13.303Z,8.21
2018-09-27T01:37:13.254Z,8.00
2018-09-27T01:40:14.261Z,7.92
2018-09-27T01:43:13.183Z,7.81
2018-09-27T01:46:15.025Z,7.71
2018-09-27T01:49:13.132Z,7.79
2018-09-27T01:52:13.103Z,7.62
2018-09-27T01:55:13.042Z,7.45
2018-09-27T01:58:13.049Z,7.50
2018-09-27T02:01:12.983Z,7.50
2018-09-27T02:04:12.952Z,7.53
2018-09-27T02:07:12.935Z,7.66
2018-09-27T02:10:12.904Z,8.03
2018-09-27T02:13:12.856Z,8.35
2018-09-27T02:16:12.815Z,8.40
2018-09-27T02:19:12.809Z,8.39
2018-09-27T02:22:12.761Z,8.37
2018-09-27T02:25:12.700Z,8.18
2018-09-27T02:28:12.700Z,7.85
2018-09-27T02:31:12.643Z,7.49
2018-09-27T02:34:12.623Z,7.31
2018-09-27T02:37:12.573Z,7.41
2018-09-27T02:40:12.543Z,7.31
2018-09-27T02:43:12.496Z,7.26
2018-09-27T02:46:12.833Z,7.47
2018-09-27T02:49:12.432Z,7.66
2018-09-27T02:52:12.412Z,7.93
2018-09-27T02:55:12.374Z,8.00
2018-09-27T02:58:12.346Z,7.69
2018-09-27T03:01:12.302Z,7.34
2018-09-27T03:04:12.283Z,7.26
2018-09-27T03:07:12.240Z,7.24
2018-09-27T03:10:12.211Z,6.98
2018-09-27T03:13:12.189Z,6.80
2018-09-27T03:16:13.023Z,6.53
2018-09-27T03:19:12.091Z,6.32
2018-09-27T03:22:12.067Z,6.33
2018-09-27T03:25:12.017Z,6.56
2018-09-27T03:28:12.006Z,7.07
2018-09-27T03:31:11.948Z,7.26
2018-09-27T03:34:11.933Z,7.38
2018-09-27T03:37:11.890Z,7.22
2018-09-27T03:40:11.926Z,7.41
2018-09-27T03:43:11.815Z,7.40
2018-09-27T03:46:11.807Z,7.01
2018-09-27T03:49:11.737Z,6.66
2018-09-27T03:52:11.724Z,6.50
2018-09-27T03:55:11.669Z,6.35
2018-09-27T03:58:11.665Z,6.41
2018-09-27T04:01:11.613Z,6.48
2018-09-27T04:04:11.599Z,6.48
2018-09-27T04:07:11.556Z,6.65
2018-09-27T04:10:11.536Z,6.95
2018-09-27T04:13:11.474Z,6.99
2018-09-27T04:16:11.504Z,6.77
2018-09-27T04:19:11.408Z,6.50
2018-09-27T04:22:11.402Z,6.28
2018-09-27T04:25:11.334Z,6.13
2018-09-27T04:28:11.323Z,5.89
2018-09-27T04:31:11.270Z,5.81
2018-09-27T04:34:11.245Z,5.78
2018-09-27T04:37:11.215Z,6.07
2018-09-27T04:40:11.172Z,6.14
2018-09-27T04:43:11.219Z,6.06
2018-09-27T04:46:11.102Z,5.96
2018-09-27T04:49:11.090Z,6.01
2018-09-27T04:52:11.044Z,5.85
2018-09-27T04:55:11.008Z,5.93
2018-09-27T04:58:10.989Z,6.18
2018-09-27T05:01:10.961Z,6.22
2018-09-27T05:04:10.910Z,6.18
2018-09-27T05:07:10.855Z,6.22
2018-09-27T05:10:10.854Z,6.14
2018-09-27T05:13:10.793Z,6.01
2018-09-27T05:16:10.777Z,5.81
2018-09-27T05:19:10.727Z,5.71
2018-09-27T05:22:10.690Z,5.53
2018-09-27T05:25:10.671Z,5.45
2018-09-27T05:28:10.642Z,5.46
2018-09-27T05:31:10.597Z,5.63
2018-09-27T05:34:10.551Z,5.89
2018-09-27T05:37:10.530Z,6.11
2018-09-27T05:40:10.489Z,6.07
2018-09-27T05:43:10.455Z,6.13
2018-09-27T05:46:10.466Z,6.14
2018-09-27T05:49:10.377Z,6.32
2018-09-27T05:52:10.394Z,7.81
2018-09-27T05:55:10.343Z,9.15
2018-09-27T05:58:10.313Z,9.83
2018-09-27T06:01:10.243Z,10.80
2018-09-27T06:04:10.283Z,11.39
2018-09-27T06:07:10.200Z,12.30
2018-09-27T06:10:10.175Z,12.67
2018-09-27T06:13:10.113Z,13.03
2018-09-27T06:16:10.264Z,11.38
2018-09-27T06:19:10.043Z,10.51
2018-09-27T06:22:10.070Z,9.78
2018-09-27T06:25:09.979Z,9.70
2018-09-27T06:28:09.945Z,10.34
2018-09-27T06:31:09.894Z,9.64
2018-09-27T06:34:09.871Z,9.30
2018-09-27T06:37:10.840Z,9.30
2018-09-27T06:40:09.817Z,9.34
2018-09-27T06:43:09.767Z,9.46
2018-09-27T06:46:09.730Z,9.63
2018-09-27T06:49:09.692Z,9.97
2018-09-27T06:52:09.694Z,10.00
2018-09-27T06:55:09.735Z,10.07
2018-09-27T06:58:09.659Z,10.07
2018-09-27T07:01:09.568Z,10.33
2018-09-27T07:04:09.584Z,10.68
2018-09-27T07:07:09.606Z,10.76
2018-09-27T07:10:09.530Z,10.88
2018-09-27T07:13:09.434Z,10.98
2018-09-27T07:16:09.407Z,11.27
2018-09-27T07:19:09.355Z,11.36
2018-09-27T07:22:09.331Z,11.86
2018-09-27T07:25:09.356Z,13.29
2018-09-27T07:28:09.252Z,16.26
2018-09-27T07:31:09.275Z,18.37
2018-09-27T07:34:09.203Z,19.02
2018-09-27T07:37:09.138Z,20.13
2018-09-27T07:40:09.133Z,20.96
2018-09-27T07:43:09.075Z,21.76
2018-09-27T07:46:09.105Z,22.72
2018-09-27T07:49:09.023Z,22.35
2018-09-27T07:52:11.093Z,22.84
2018-09-27T07:55:08.974Z,23.55
2018-09-27T07:58:10.479Z,24.41
2018-09-27T08:01:08.874Z,25.13
2018-09-27T08:04:08.962Z,24.94
2018-09-27T08:07:08.878Z,24.54
2018-09-27T08:10:08.788Z,25.17
2018-09-27T08:13:08.743Z,25.61
2018-09-27T08:16:08.980Z,25.72
2018-09-27T08:19:08.676Z,26.29
2018-09-27T08:22:08.682Z,25.91
2018-09-27T08:25:08.612Z,25.91
2018-09-27T08:28:08.598Z,26.42
2018-09-27T08:31:08.604Z,25.67
2018-09-27T08:34:08.545Z,25.71
2018-09-27T08:37:08.517Z,25.65
2018-09-27T08:40:08.480Z,26.55
2018-09-27T08:43:08.457Z,26.80
2018-09-27T08:46:08.427Z,27.09
2018-09-27T08:49:08.367Z,27.46
2018-09-27T08:52:08.351Z,27.82
2018-09-27T08:55:08.303Z,27.82
2018-09-27T08:58:08.273Z,28.50
2018-09-27T09:01:08.234Z,27.82
2018-09-27T09:04:08.227Z,28.01
2018-09-27T09:07:08.176Z,27.86
2018-09-27T09:10:08.153Z,28.26
2018-09-27T09:13:08.119Z,28.53
2018-09-27T09:16:08.117Z,27.86
2018-09-27T09:19:08.065Z,27.21
2018-09-27T09:22:08.042Z,26.91
2018-09-27T09:25:08.021Z,26.74
2018-09-27T09:28:07.957Z,27.57
2018-09-27T09:31:07.952Z,28.23
2018-09-27T09:34:07.932Z,27.80
2018-09-27T09:37:07.849Z,28.40
2018-09-27T09:40:07.827Z,28.22
2018-09-27T09:43:07.795Z,28.66
2018-09-27T09:46:07.771Z,29.04
2018-09-27T09:49:07.721Z,29.34
2018-09-27T09:52:07.741Z,29.25
2018-09-27T09:55:07.662Z,30.07
2018-09-27T09:58:07.677Z,30.45
2018-09-27T10:01:07.727Z,29.35
2018-09-27T10:04:07.616Z,29.16
2018-09-27T10:07:07.527Z,29.79
2018-09-27T10:10:07.548Z,29.68
2018-09-27T10:13:07.478Z,30.38
2018-09-27T10:16:07.481Z,30.29
2018-09-27T10:19:07.401Z,29.11
2018-09-27T10:22:07.588Z,29.29
2018-09-27T10:25:07.395Z,28.63
2018-09-27T10:28:07.641Z,29.52
2018-09-27T10:31:07.315Z,29.52
2018-09-27T10:34:07.350Z,28.90
2018-09-27T10:37:07.264Z,28.22
2018-09-27T10:40:07.208Z,29.01
2018-09-27T10:43:07.164Z,30.56
2018-09-27T10:46:07.147Z,30.46
2018-09-27T10:49:07.106Z,29.04
2018-09-27T10:52:07.086Z,29.22
2018-09-27T10:55:07.049Z,28.28
2018-09-27T10:58:07.062Z,27.91
2018-09-27T11:01:06.982Z,29.16
2018-09-27T11:04:06.995Z,29.01
2018-09-27T11:07:06.925Z,28.69
2018-09-27T11:10:06.921Z,27.69
2018-09-27T11:13:06.856Z,28.60
2018-09-27T11:16:06.844Z,29.93
2018-09-27T11:19:06.792Z,29.52
2018-09-27T11:22:06.799Z,27.31
2018-09-27T11:25:06.743Z,28.69
2018-09-27T11:28:06.715Z,29.22
2018-09-27T11:31:06.664Z,28.60
2018-09-27T11:34:06.653Z,28.01
2018-09-27T11:37:06.597Z,29.45
2018-09-27T11:40:06.611Z,29.22
2018-09-27T11:43:06.540Z,28.26
2018-09-27T11:46:12.287Z,28.77
2018-09-27T11:49:06.589Z,28.63
2018-09-27T11:52:06.450Z,29.16
2018-09-27T11:55:06.478Z,29.65
2018-09-27T11:58:06.473Z,30.62
2018-09-27T12:01:06.339Z,29.62
2018-09-27T12:04:06.340Z,28.85
2018-09-27T12:07:06.374Z,28.84
2018-09-27T12:10:06.323Z,29.04
2018-09-27T12:13:06.239Z,29.90
2018-09-27T12:16:06.196Z,28.16
2018-09-27T12:19:06.173Z,29.16
2018-09-27T12:22:06.147Z,29.11
2018-09-27T12:25:06.099Z,29.07
2018-09-27T12:28:06.121Z,27.92
2018-09-27T12:31:06.116Z,27.73
2018-09-27T12:34:06.080Z,28.60
2018-09-27T12:37:05.979Z,28.10
2018-09-27T12:40:05.975Z,28.25
2018-09-27T12:43:05.956Z,29.15
2018-09-27T12:46:06.008Z,28.48
2018-09-27T12:49:05.838Z,27.71
2018-09-27T12:52:06.097Z,27.80
2018-09-27T12:55:05.874Z,28.26
2018-09-27T12:58:05.763Z,28.01
2018-09-27T13:01:05.794Z,27.41
2018-09-27T13:04:07.089Z,26.94
2018-09-27T13:07:06.751Z,27.24
2018-09-27T13:10:05.826Z,26.73
2018-09-27T13:13:05.685Z,27.61
2018-09-27T13:16:05.685Z,27.79
2018-09-27T13:19:05.600Z,27.86
2018-09-27T13:22:07.530Z,27.58
2018-09-27T13:25:05.612Z,26.52
2018-09-27T13:28:05.517Z,26.83
2018-09-27T13:31:05.454Z,26.74
2018-09-27T13:34:05.560Z,26.50
2018-09-27T13:37:05.439Z,26.84
2018-09-27T13:40:05.436Z,27.16
2018-09-27T13:43:05.455Z,26.83
2018-09-27T13:46:05.520Z,26.67
2018-09-27T13:49:05.359Z,26.81
2018-09-27T13:52:05.295Z,27.06
2018-09-27T13:55:05.186Z,26.67
2018-09-27T13:58:06.591Z,26.74
2018-09-27T14:01:05.204Z,27.24
2018-09-27T14:04:05.136Z,26.96
2018-09-27T14:07:05.125Z,26.64
2018-09-27T14:10:05.080Z,26.79
2018-09-27T14:13:05.002Z,26.64
2018-09-27T14:16:05.015Z,26.27
2018-09-27T14:19:04.925Z,26.15
2018-09-27T14:22:04.919Z,26.54
2018-09-27T14:25:04.864Z,26.68
2018-09-27T14:28:04.844Z,26.83
2018-09-27T14:31:04.817Z,26.47
2018-09-27T14:34:04.791Z,26.12
2018-09-27T14:37:04.764Z,26.37
2018-09-27T14:40:04.751Z,26.46
2018-09-27T14:43:04.696Z,26.50
2018-09-27T14:46:04.663Z,26.76
2018-09-27T14:49:04.629Z,26.69
2018-09-27T14:52:04.619Z,26.52
2018-09-27T14:55:04.650Z,26.86
2018-09-27T14:58:04.533Z,26.76
2018-09-27T15:01:04.494Z,26.44
2018-09-27T15:04:04.464Z,26.73
2018-09-27T15:07:04.432Z,26.64
2018-09-27T15:10:04.412Z,26.72
2018-09-27T15:13:04.353Z,26.62
2018-09-27T15:16:04.330Z,26.20
2018-09-27T15:19:04.281Z,26.21
2018-09-27T15:22:04.273Z,26.36
2018-09-27T15:25:04.221Z,26.20
2018-09-27T15:28:04.296Z,26.49
2018-09-27T15:31:04.152Z,26.59
2018-09-27T15:34:04.161Z,26.12
2018-09-27T15:37:04.092Z,26.17
2018-09-27T15:40:04.189Z,26.39
2018-09-27T15:43:04.042Z,25.94
2018-09-27T15:46:04.019Z,25.75
2018-09-27T15:49:03.965Z,25.99
2018-09-27T15:52:03.954Z,25.97
2018-09-27T15:55:03.900Z,26.18
2018-09-27T15:58:03.909Z,25.69
2018-09-27T16:01:03.835Z,25.82
2018-09-27T16:04:03.885Z,25.28
2018-09-27T16:07:03.781Z,25.54
2018-09-27T16:10:03.748Z,25.56
2018-09-27T16:13:03.693Z,25.34
2018-09-27T16:16:03.709Z,25.61
2018-09-27T16:19:03.638Z,25.53
2018-09-27T16:22:03.686Z,25.01
2018-09-27T16:25:03.564Z,24.87
2018-09-27T16:28:03.585Z,23.83
2018-09-27T16:31:03.505Z,22.82
2018-09-27T16:34:03.489Z,22.74
2018-09-27T16:37:03.431Z,23.11
2018-09-27T16:40:03.441Z,22.35
2018-09-27T16:43:03.378Z,21.69
2018-09-27T16:46:03.370Z,21.56
2018-09-27T16:49:03.317Z,21.23
2018-09-27T16:52:03.283Z,21.06
2018-09-27T16:55:03.241Z,20.84
2018-09-27T16:58:03.214Z,20.61
2018-09-27T17:01:03.235Z,20.39
2018-09-27T17:04:03.133Z,20.10
2018-09-27T17:07:03.108Z,20.10
2018-09-27T17:10:03.075Z,19.97
2018-09-27T17:13:03.024Z,19.79
2018-09-27T17:16:03.220Z,19.73
2018-09-27T17:19:02.982Z,19.46
2018-09-27T17:22:02.960Z,19.35
2018-09-27T17:25:02.890Z,19.24
2018-09-27T17:28:02.865Z,18.98
2018-09-27T17:31:02.811Z,18.74
2018-09-27T17:34:02.870Z,18.42
2018-09-27T17:37:02.767Z,17.97
2018-09-27T17:40:02.767Z,17.47
2018-09-27T17:43:02.692Z,17.22
2018-09-27T17:46:02.697Z,16.83
2018-09-27T17:49:02.604Z,16.59
2018-09-27T17:52:02.590Z,16.37
2018-09-27T17:55:02.535Z,16.15
2018-09-27T17:58:02.526Z,16.04
2018-09-27T18:02:47.362Z,15.54
2018-09-27T18:11:25.765Z,15.51
2018-09-27T18:14:25.051Z,15.56
2018-09-27T18:17:26.090Z,15.74
2018-09-27T18:20:25.614Z,15.84
2018-09-27T18:23:24.837Z,15.74
2018-09-27T18:26:24.917Z,15.67
2018-09-27T18:29:24.897Z,15.59
2018-09-27T18:32:24.689Z,15.59
2018-09-27T18:35:24.673Z,15.76
2018-09-27T18:38:24.918Z,16.01
2018-09-27T18:41:24.649Z,16.15
2018-09-27T18:44:24.634Z,16.31
2018-09-27T18:47:24.653Z,16.20
2018-09-27T18:50:24.594Z,16.22
2018-09-27T18:53:24.542Z,16.16
2018-09-27T18:56:24.397Z,15.94
2018-09-27T18:59:24.433Z,15.88
2018-09-27T19:02:24.764Z,15.81
2018-09-27T19:05:25.121Z,15.60
2018-09-27T19:08:24.340Z,15.43
2018-09-27T19:11:24.367Z,15.33
2018-09-27T19:14:24.345Z,15.17
2018-09-27T19:17:24.362Z,14.93
2018-09-27T19:20:24.321Z,14.75
2018-09-27T19:23:24.226Z,14.78
2018-09-27T19:26:25.318Z,14.91
2018-09-27T19:29:33.594Z,15.23
2018-09-27T19:32:23.963Z,15.48
2018-09-27T19:35:23.953Z,15.70
2018-09-27T19:38:23.899Z,15.76
2018-09-27T19:41:23.897Z,15.81
2018-09-27T19:44:23.855Z,15.88
2018-09-27T19:47:23.814Z,15.74
2018-09-27T19:50:23.766Z,15.72
2018-09-27T19:53:23.753Z,15.74
2018-09-27T19:56:23.704Z,15.72
2018-09-27T19:59:23.678Z,15.52
2018-09-27T20:02:23.630Z,15.56
2018-09-27T20:05:23.616Z,15.54
2018-09-27T20:08:23.564Z,15.48
2018-09-27T20:11:23.534Z,15.45
2018-09-27T20:14:23.499Z,15.36
2018-09-27T20:17:23.477Z,15.28
2018-09-27T20:20:23.435Z,15.17
2018-09-27T20:23:23.401Z,15.21
2018-09-27T20:26:23.386Z,15.15
2018-09-27T20:29:23.343Z,14.94
2018-09-27T20:32:23.304Z,15.05
2018-09-27T20:35:23.266Z,14.98
2018-09-27T20:38:23.230Z,14.93
2018-09-27T20:41:23.201Z,14.93
2018-09-27T20:44:23.153Z,14.71
2018-09-27T20:47:23.147Z,14.88
2018-09-27T20:50:23.087Z,14.86
2018-09-27T20:53:23.061Z,14.86
2018-09-27T20:56:23.041Z,14.88
2018-09-27T20:59:23.011Z,14.80
2018-09-27T21:02:22.960Z,14.88
2018-09-27T21:05:22.948Z,14.68
2018-09-27T21:08:22.892Z,14.65
2018-09-27T21:11:22.869Z,14.54
2018-09-27T21:14:22.835Z,14.46
2018-09-27T21:17:22.794Z,14.34
2018-09-27T21:20:22.756Z,14.31
2018-09-27T21:23:22.741Z,14.21
2018-09-27T21:26:22.741Z,14.14
2018-09-27T21:29:23.069Z,13.84
2018-09-27T21:32:22.619Z,13.76
2018-09-27T21:35:22.596Z,13.69
2018-09-27T21:38:22.564Z,13.70
2018-09-27T21:41:22.526Z,13.62
2018-09-27T21:44:22.487Z,13.74
2018-09-27T21:47:22.467Z,13.79
2018-09-27T21:50:22.456Z,13.71
2018-09-27T21:53:22.423Z,13.65
2018-09-27T21:56:22.348Z,13.65
2018-09-27T21:59:22.368Z,13.52
2018-09-27T22:02:22.300Z,13.29
2018-09-27T22:05:22.281Z,13.00
2018-09-27T22:08:22.224Z,12.67
2018-09-27T22:11:22.199Z,12.49
2018-09-27T22:14:22.146Z,12.38
2018-09-27T22:17:22.142Z,12.51
2018-09-27T22:20:22.091Z,12.71
2018-09-27T22:23:22.067Z,12.82
2018-09-27T22:26:22.013Z,12.96
2018-09-27T22:29:22.013Z,12.84
2018-09-27T22:32:21.946Z,12.63
2018-09-27T22:35:21.921Z,12.27
2018-09-27T22:38:21.882Z,12.01
2018-09-27T22:41:21.862Z,11.83
2018-09-27T22:44:21.816Z,11.83
2018-09-27T22:47:21.789Z,11.94
2018-09-27T22:50:21.747Z,11.99
2018-09-27T22:53:21.724Z,11.86
2018-09-27T22:56:21.740Z,11.78
2018-09-27T22:59:21.662Z,11.83
2018-09-27T23:02:21.629Z,11.78
2018-09-27T23:05:21.585Z,11.75
2018-09-27T23:08:21.560Z,11.74
2018-09-27T23:11:21.534Z,11.53
2018-09-27T23:14:21.478Z,11.49
2018-09-27T23:17:21.472Z,11.47
2018-09-27T23:20:21.441Z,11.36
2018-09-27T23:23:21.397Z,11.16
2018-09-27T23:26:21.346Z,11.02
2018-09-27T23:29:21.342Z,11.01
2018-09-27T23:32:21.282Z,11.07
2018-09-27T23:35:21.268Z,11.35
2018-09-27T23:38:21.222Z,11.59
2018-09-27T23:41:21.197Z,11.56
2018-09-27T23:44:21.146Z,11.59
2018-09-27T23:47:21.141Z,11.74
2018-09-27T23:50:21.074Z,11.75
2018-09-27T23:53:21.046Z,11.65
2018-09-27T23:56:21.016Z,11.47
2018-09-27T23:59:20.992Z,11.19
